Forside
METAR-TAF:

METAR-TAF

Lufthavne :

Kristianstad, Sverige

Breddekreds: 55-55N, længdekreds: 014-05E, højde: 23 m

Aktuelle vejr

Denne rapport blev lavet for 39 minutter siden, kl. 01:20 UTC
Vind 6 kt fra vestnordvest
Temperatur 14°C
Fugtighed 94%
Tryk 1008 hPa
Sigt 10 km eller mere

METAR: ESMK 220120Z AUTO 30006KT 9999 NCD 14/13 Q1008

Tid: 03:59 (01:59 UTC)

Vejrudsigter

Denne rapport blev lavet for 14 timer og 48 minutter siden, kl. 11:11 UTC
Foreløbig gælder fra 21 på 12 UTC til 21 på 15 UTC
Vind 6 kt fra østsydøst
Sigt 10 km eller mere
Spredte skyer i en højde af 2000 ft

TAF: ESMK 211111Z 2112/2115 12006KT 9999 SCT020

Vejrobservationer og prognoser fra mere end 4000 lufthavne (METAR og TAF).

De gule og røde prikker repræsenterer de meteorologiske stationer.

Flyt musen over at se navnet på stationen.

Så klik over at se vejr observationer og prognoser.

At skifte det kort: Klik på de grønne knapper med et sort kors for at zoome ind; på den grønne knap med en bindestreg for at zoome ud; eller på de grønne pile for tilstødende kort.


METAR-TAF: